sensor_id;sensor_type;location;lat;lon;timestamp;temperature;humidity
33739;DHT22;20063;51.730;11.110;2023-03-01T00:01:21;-2.10;99.90
33739;DHT22;20063;51.730;11.110;2023-03-01T00:03:47;-2.10;99.90
33739;DHT22;20063;51.730;11.110;2023-03-01T00:06:13;-2.10;99.90
33739;DHT22;20063;51.730;11.110;2023-03-01T00:08:38;-2.10;99.90
33739;DHT22;20063;51.730;11.110;2023-03-01T00:11:18;-2.10;99.90
33739;DHT22;20063;51.730;11.110;2023-03-01T00:13:45;-2.10;99.90
33739;DHT22;20063;51.730;11.110;2023-03-01T00:16:18;-2.00;99.90
33739;DHT22;20063;51.730;11.110;2023-03-01T00:18:43;-2.00;99.90
33739;DHT22;20063;51.730;11.110;2023-03-01T00:21:09;-2.00;99.90
33739;DHT22;20063;51.730;11.110;2023-03-01T00:23:36;-2.10;99.90
33739;DHT22;20063;51.730;11.110;2023-03-01T00:26:02;-2.10;99.90
33739;DHT22;20063;51.730;11.110;2023-03-01T00:28:27;-2.20;99.90
33739;DHT22;20063;51.730;11.110;2023-03-01T00:30:53;-2.30;99.90
33739;DHT22;20063;51.730;11.110;2023-03-01T00:33:19;-2.30;99.90
33739;DHT22;20063;51.730;11.110;2023-03-01T00:35:44;-2.30;99.90
33739;DHT22;20063;51.730;11.110;2023-03-01T00:38:10;-2.30;99.90
33739;DHT22;20063;51.730;11.110;2023-03-01T00:40:36;-2.30;99.90
33739;DHT22;20063;51.730;11.110;2023-03-01T00:43:03;-2.30;99.90
33739;DHT22;20063;51.730;11.110;2023-03-01T00:45:29;-2.30;99.90
33739;DHT22;20063;51.730;11.110;2023-03-01T00:47:56;-2.30;99.90
33739;DHT22;20063;51.730;11.110;2023-03-01T00:50:24;-2.30;99.90
33739;DHT22;20063;51.730;11.110;2023-03-01T00:52:54;-2.30;99.90
33739;DHT22;20063;51.730;11.110;2023-03-01T00:55:20;-2.40;99.90
33739;DHT22;20063;51.730;11.110;2023-03-01T00:57:46;-2.40;99.90
33739;DHT22;20063;51.730;11.110;2023-03-01T01:00:12;-2.40;99.90
33739;DHT22;20063;51.730;11.110;2023-03-01T01:02:37;-2.40;99.90
33739;DHT22;20063;51.730;11.110;2023-03-01T01:05:04;-2.40;99.90
33739;DHT22;20063;51.730;11.110;2023-03-01T01:07:30;-2.40;99.90
33739;DHT22;20063;51.730;11.110;2023-03-01T01:09:55;-2.40;99.90
33739;DHT22;20063;51.730;11.110;2023-03-01T01:12:21;-2.50;99.90
33739;DHT22;20063;51.730;11.110;2023-03-01T01:14:46;-2.50;99.90
33739;DHT22;20063;51.730;11.110;2023-03-01T01:17:12;-2.50;99.90
33739;DHT22;20063;51.730;11.110;2023-03-01T01:19:38;-2.50;99.90
33739;DHT22;20063;51.730;11.110;2023-03-01T01:22:03;-2.50;99.90
33739;DHT22;20063;51.730;11.110;2023-03-01T01:24:29;-2.50;99.90
33739;DHT22;20063;51.730;11.110;2023-03-01T01:26:55;-2.50;99.90
33739;DHT22;20063;51.730;11.110;2023-03-01T01:29:21;-2.50;99.90
33739;DHT22;20063;51.730;11.110;2023-03-01T01:31:46;-2.50;99.90
33739;DHT22;20063;51.730;11.110;2023-03-01T01:34:21;-2.50;99.90
33739;DHT22;20063;51.730;11.110;2023-03-01T01:36:52;-2.50;99.90
33739;DHT22;20063;51.730;11.110;2023-03-01T01:39:19;-2.40;99.90
33739;DHT22;20063;51.730;11.110;2023-03-01T01:41:45;-2.40;99.90
33739;DHT22;20063;51.730;11.110;2023-03-01T01:44:19;-2.50;99.90
33739;DHT22;20063;51.730;11.110;2023-03-01T01:49:37;-2.50;99.90
33739;DHT22;20063;51.730;11.110;2023-03-01T01:52:18;-2.50;99.90
33739;DHT22;20063;51.730;11.110;2023-03-01T01:57:45;-2.50;99.90
33739;DHT22;20063;51.730;11.110;2023-03-01T02:00:23;-2.50;99.90
33739;DHT22;20063;51.730;11.110;2023-03-01T02:02:54;-2.50;99.90
33739;DHT22;20063;51.730;11.110;2023-03-01T02:05:46;-2.60;99.90
33739;DHT22;20063;51.730;11.110;2023-03-01T02:08:14;-2.60;99.90
33739;DHT22;20063;51.730;11.110;2023-03-01T02:10:42;-2.60;99.90
33739;DHT22;20063;51.730;11.110;2023-03-01T02:13:08;-2.60;99.90
33739;DHT22;20063;51.730;11.110;2023-03-01T02:15:35;-2.60;99.90
33739;DHT22;20063;51.730;11.110;2023-03-01T02:18:02;-2.60;99.90
33739;DHT22;20063;51.730;11.110;2023-03-01T02:21:20;-2.60;99.90
33739;DHT22;20063;51.730;11.110;2023-03-01T02:23:27;-2.60;99.90
33739;DHT22;20063;51.730;11.110;2023-03-01T02:26:02;-2.60;99.90
33739;DHT22;20063;51.730;11.110;2023-03-01T02:28:37;-2.60;99.90
33739;DHT22;20063;51.730;11.110;2023-03-01T02:31:05;-2.60;99.90
33739;DHT22;20063;51.730;11.110;2023-03-01T02:33:49;-2.70;99.90
33739;DHT22;20063;51.730;11.110;2023-03-01T02:36:19;-2.60;99.90
33739;DHT22;20063;51.730;11.110;2023-03-01T02:38:47;-2.70;99.90
33739;DHT22;20063;51.730;11.110;2023-03-01T02:41:15;-2.70;99.90
33739;DHT22;20063;51.730;11.110;2023-03-01T02:43:42;-2.60;99.90
33739;DHT22;20063;51.730;11.110;2023-03-01T02:46:17;-2.60;99.90
33739;DHT22;20063;51.730;11.110;2023-03-01T02:48:48;-2.60;99.90
33739;DHT22;20063;51.730;11.110;2023-03-01T02:54:28;-2.70;99.90
33739;DHT22;20063;51.730;11.110;2023-03-01T02:56:54;-2.80;99.90
33739;DHT22;20063;51.730;11.110;2023-03-01T02:59:28;-2.80;99.90
33739;DHT22;20063;51.730;11.110;2023-03-01T03:01:54;-2.90;99.90
33739;DHT22;20063;51.730;11.110;2023-03-01T03:04:20;-2.90;99.90
33739;DHT22;20063;51.730;11.110;2023-03-01T03:06:47;-2.90;99.90
33739;DHT22;20063;51.730;11.110;2023-03-01T03:09:14;-2.90;99.90
33739;DHT22;20063;51.730;11.110;2023-03-01T03:11:40;-2.90;99.90
33739;DHT22;20063;51.730;11.110;2023-03-01T03:14:07;-2.90;99.90
33739;DHT22;20063;51.730;11.110;2023-03-01T03:16:42;-2.80;99.90
33739;DHT22;20063;51.730;11.110;2023-03-01T03:19:09;-2.80;99.90
33739;DHT22;20063;51.730;11.110;2023-03-01T03:21:35;-2.80;99.90
33739;DHT22;20063;51.730;11.110;2023-03-01T03:24:01;-2.80;99.90
33739;DHT22;20063;51.730;11.110;2023-03-01T03:26:26;-2.80;99.90
33739;DHT22;20063;51.730;11.110;2023-03-01T03:28:52;-2.80;99.90
33739;DHT22;20063;51.730;11.110;2023-03-01T03:31:18;-2.80;99.90
33739;DHT22;20063;51.730;11.110;2023-03-01T03:33:44;-2.70;99.90
33739;DHT22;20063;51.730;11.110;2023-03-01T03:36:09;-2.70;99.90
33739;DHT22;20063;51.730;11.110;2023-03-01T03:38:39;-2.80;99.90
33739;DHT22;20063;51.730;11.110;2023-03-01T03:41:07;-2.80;99.90
33739;DHT22;20063;51.730;11.110;2023-03-01T03:43:35;-2.90;99.90
33739;DHT22;20063;51.730;11.110;2023-03-01T03:46:02;-2.90;99.90
33739;DHT22;20063;51.730;11.110;2023-03-01T03:48:32;-2.90;99.90
33739;DHT22;20063;51.730;11.110;2023-03-01T03:51:01;-2.90;99.90
33739;DHT22;20063;51.730;11.110;2023-03-01T03:53:30;-2.80;99.90
33739;DHT22;20063;51.730;11.110;2023-03-01T03:55:56;-2.90;99.90
33739;DHT22;20063;51.730;11.110;2023-03-01T03:58:24;-2.90;99.90
33739;DHT22;20063;51.730;11.110;2023-03-01T04:00:54;-2.90;99.90
33739;DHT22;20063;51.730;11.110;2023-03-01T04:03:22;-2.90;99.90
33739;DHT22;20063;51.730;11.110;2023-03-01T04:05:48;-3.00;99.90
33739;DHT22;20063;51.730;11.110;2023-03-01T04:08:16;-3.00;99.90
33739;DHT22;20063;51.730;11.110;2023-03-01T04:10:46;-3.10;99.90
33739;DHT22;20063;51.730;11.110;2023-03-01T04:13:14;-3.20;99.90
33739;DHT22;20063;51.730;11.110;2023-03-01T04:15:41;-3.20;99.90
33739;DHT22;20063;51.730;11.110;2023-03-01T04:18:10;-3.20;99.90
33739;DHT22;20063;51.730;11.110;2023-03-01T04:20:37;-3.20;99.90
33739;DHT22;20063;51.730;11.110;2023-03-01T04:23:11;-3.20;99.90
33739;DHT22;20063;51.730;11.110;2023-03-01T04:25:40;-3.20;99.90
33739;DHT22;20063;51.730;11.110;2023-03-01T04:28:06;-3.20;99.90
33739;DHT22;20063;51.730;11.110;2023-03-01T04:30:32;-3.20;99.90
33739;DHT22;20063;51.730;11.110;2023-03-01T04:33:02;-3.20;99.90
33739;DHT22;20063;51.730;11.110;2023-03-01T04:35:27;-3.30;99.90
33739;DHT22;20063;51.730;11.110;2023-03-01T04:37:53;-3.30;99.90
33739;DHT22;20063;51.730;11.110;2023-03-01T04:40:18;-3.30;99.90
33739;DHT22;20063;51.730;11.110;2023-03-01T04:42:44;-3.30;99.90
33739;DHT22;20063;51.730;11.110;2023-03-01T04:45:12;-3.30;99.90
33739;DHT22;20063;51.730;11.110;2023-03-01T04:47:54;-3.30;99.90
33739;DHT22;20063;51.730;11.110;2023-03-01T04:50:20;-3.30;99.90
33739;DHT22;20063;51.730;11.110;2023-03-01T04:52:47;-3.30;99.90
33739;DHT22;20063;51.730;11.110;2023-03-01T04:55:13;-3.40;99.90
33739;DHT22;20063;51.730;11.110;2023-03-01T04:57:39;-3.40;99.90
33739;DHT22;20063;51.730;11.110;2023-03-01T05:00:08;-3.40;99.90
33739;DHT22;20063;51.730;11.110;2023-03-01T05:02:53;-3.50;99.90
33739;DHT22;20063;51.730;11.110;2023-03-01T05:05:32;-3.40;99.90
33739;DHT22;20063;51.730;11.110;2023-03-01T05:08:00;-3.40;99.90
33739;DHT22;20063;51.730;11.110;2023-03-01T05:10:28;-3.30;99.90
33739;DHT22;20063;51.730;11.110;2023-03-01T05:12:55;-3.40;99.90
33739;DHT22;20063;51.730;11.110;2023-03-01T05:15:23;-3.40;99.90
33739;DHT22;20063;51.730;11.110;2023-03-01T05:17:51;-3.40;99.90
33739;DHT22;20063;51.730;11.110;2023-03-01T05:20:17;-3.40;99.90
33739;DHT22;20063;51.730;11.110;2023-03-01T05:22:43;-3.40;99.90
33739;DHT22;20063;51.730;11.110;2023-03-01T05:25:10;-3.40;99.90
33739;DHT22;20063;51.730;11.110;2023-03-01T05:27:36;-3.40;99.90
33739;DHT22;20063;51.730;11.110;2023-03-01T05:30:03;-3.30;99.90
33739;DHT22;20063;51.730;11.110;2023-03-01T05:32:42;-3.30;99.90
33739;DHT22;20063;51.730;11.110;2023-03-01T05:35:10;-3.30;99.90
33739;DHT22;20063;51.730;11.110;2023-03-01T05:37:45;-3.40;99.90
33739;DHT22;20063;51.730;11.110;2023-03-01T05:40:13;-3.40;99.90
33739;DHT22;20063;51.730;11.110;2023-03-01T05:45:16;-3.40;99.90
33739;DHT22;20063;51.730;11.110;2023-03-01T05:47:43;-3.50;99.90
33739;DHT22;20063;51.730;11.110;2023-03-01T05:50:26;-3.50;99.90
33739;DHT22;20063;51.730;11.110;2023-03-01T05:55:22;-3.50;99.90
33739;DHT22;20063;51.730;11.110;2023-03-01T05:57:48;-3.50;99.90
33739;DHT22;20063;51.730;11.110;2023-03-01T06:00:16;-3.40;99.90
33739;DHT22;20063;51.730;11.110;2023-03-01T06:02:43;-3.40;99.90
33739;DHT22;20063;51.730;11.110;2023-03-01T06:05:10;-3.30;99.90
33739;DHT22;20063;51.730;11.110;2023-03-01T06:07:36;-3.40;99.90
33739;DHT22;20063;51.730;11.110;2023-03-01T06:10:03;-3.40;99.90
33739;DHT22;20063;51.730;11.110;2023-03-01T06:12:33;-3.40;99.90
33739;DHT22;20063;51.730;11.110;2023-03-01T06:14:59;-3.40;99.90
33739;DHT22;20063;51.730;11.110;2023-03-01T06:17:26;-3.50;99.90
33739;DHT22;20063;51.730;11.110;2023-03-01T06:19:54;-3.50;99.90
33739;DHT22;20063;51.730;11.110;2023-03-01T06:22:19;-3.60;99.90
33739;DHT22;20063;51.730;11.110;2023-03-01T06:24:45;-3.60;99.90
33739;DHT22;20063;51.730;11.110;2023-03-01T06:27:10;-3.60;99.90
33739;DHT22;20063;51.730;11.110;2023-03-01T06:29:36;-3.60;99.90
33739;DHT22;20063;51.730;11.110;2023-03-01T06:32:02;-3.50;99.90
33739;DHT22;20063;51.730;11.110;2023-03-01T06:34:28;-3.50;99.90
33739;DHT22;20063;51.730;11.110;2023-03-01T06:36:54;-3.50;99.90
33739;DHT22;20063;51.730;11.110;2023-03-01T06:39:19;-3.40;99.90
33739;DHT22;20063;51.730;11.110;2023-03-01T06:41:45;-3.40;99.90
33739;DHT22;20063;51.730;11.110;2023-03-01T06:44:11;-3.30;99.90
33739;DHT22;20063;51.730;11.110;2023-03-01T06:46:36;-3.30;99.90
33739;DHT22;20063;51.730;11.110;2023-03-01T06:49:02;-3.30;99.90
33739;DHT22;20063;51.730;11.110;2023-03-01T06:51:33;-3.20;99.90
33739;DHT22;20063;51.730;11.110;2023-03-01T06:53:58;-3.10;99.90
33739;DHT22;20063;51.730;11.110;2023-03-01T06:56:24;-3.10;99.90
33739;DHT22;20063;51.730;11.110;2023-03-01T06:58:49;-3.10;99.90
33739;DHT22;20063;51.730;11.110;2023-03-01T07:01:15;-3.10;99.90
33739;DHT22;20063;51.730;11.110;2023-03-01T07:03:40;-3.10;99.90
33739;DHT22;20063;51.730;11.110;2023-03-01T07:06:06;-3.00;99.90
33739;DHT22;20063;51.730;11.110;2023-03-01T07:08:32;-3.00;99.90
33739;DHT22;20063;51.730;11.110;2023-03-01T07:10:58;-2.80;99.90
33739;DHT22;20063;51.730;11.110;2023-03-01T07:13:24;-2.80;99.90
33739;DHT22;20063;51.730;11.110;2023-03-01T07:15:50;-2.70;99.90
33739;DHT22;20063;51.730;11.110;2023-03-01T07:18:15;-2.60;99.90
33739;DHT22;20063;51.730;11.110;2023-03-01T07:20:41;-2.60;99.90
33739;DHT22;20063;51.730;11.110;2023-03-01T07:23:07;-2.50;99.90
33739;DHT22;20063;51.730;11.110;2023-03-01T07:25:32;-2.40;99.90
33739;DHT22;20063;51.730;11.110;2023-03-01T07:27:58;-2.30;99.90
33739;DHT22;20063;51.730;11.110;2023-03-01T07:30:24;-2.20;99.90
33739;DHT22;20063;51.730;11.110;2023-03-01T07:32:54;-2.20;99.90
33739;DHT22;20063;51.730;11.110;2023-03-01T07:35:22;-2.10;99.90
33739;DHT22;20063;51.730;11.110;2023-03-01T07:37:47;-2.00;99.90
33739;DHT22;20063;51.730;11.110;2023-03-01T07:40:13;-2.00;99.90
33739;DHT22;20063;51.730;11.110;2023-03-01T07:42:38;-1.90;99.90
33739;DHT22;20063;51.730;11.110;2023-03-01T07:45:05;-1.80;99.90
33739;DHT22;20063;51.730;11.110;2023-03-01T07:47:32;-1.70;99.90
33739;DHT22;20063;51.730;11.110;2023-03-01T07:49:57;-1.70;99.90
33739;DHT22;20063;51.730;11.110;2023-03-01T07:52:23;-1.60;99.90
33739;DHT22;20063;51.730;11.110;2023-03-01T07:54:48;-1.40;99.90
33739;DHT22;20063;51.730;11.110;2023-03-01T07:57:14;-1.30;99.90
33739;DHT22;20063;51.730;11.110;2023-03-01T07:59:42;-1.20;99.90
33739;DHT22;20063;51.730;11.110;2023-03-01T08:02:09;-1.10;99.90
33739;DHT22;20063;51.730;11.110;2023-03-01T08:04:35;-1.10;99.90
33739;DHT22;20063;51.730;11.110;2023-03-01T08:07:00;-1.00;99.90
33739;DHT22;20063;51.730;11.110;2023-03-01T08:09:26;-1.00;99.90
33739;DHT22;20063;51.730;11.110;2023-03-01T08:11:51;-1.00;99.90
33739;DHT22;20063;51.730;11.110;2023-03-01T08:14:17;-0.90;99.90
33739;DHT22;20063;51.730;11.110;2023-03-01T08:16:43;-0.90;99.90
33739;DHT22;20063;51.730;11.110;2023-03-01T08:19:11;-0.80;99.90
33739;DHT22;20063;51.730;11.110;2023-03-01T08:21:37;-0.80;99.90
33739;DHT22;20063;51.730;11.110;2023-03-01T08:24:04;-0.70;99.90
33739;DHT22;20063;51.730;11.110;2023-03-01T08:26:32;-0.70;99.90
33739;DHT22;20063;51.730;11.110;2023-03-01T08:28:59;-0.60;99.90
33739;DHT22;20063;51.730;11.110;2023-03-01T08:31:30;-0.60;99.90
33739;DHT22;20063;51.730;11.110;2023-03-01T08:33:58;-0.60;99.90
33739;DHT22;20063;51.730;11.110;2023-03-01T08:36:27;-0.50;99.90
33739;DHT22;20063;51.730;11.110;2023-03-01T08:38:53;-0.40;99.90
33739;DHT22;20063;51.730;11.110;2023-03-01T08:41:19;-0.40;99.90
33739;DHT22;20063;51.730;11.110;2023-03-01T08:43:44;-0.30;99.90
33739;DHT22;20063;51.730;11.110;2023-03-01T08:46:11;-0.20;99.90
33739;DHT22;20063;51.730;11.110;2023-03-01T08:48:37;-0.20;99.90
33739;DHT22;20063;51.730;11.110;2023-03-01T08:53:34;0.00;99.90
33739;DHT22;20063;51.730;11.110;2023-03-01T08:56:01;0.00;99.90
33739;DHT22;20063;51.730;11.110;2023-03-01T08:58:30;0.10;99.90
33739;DHT22;20063;51.730;11.110;2023-03-01T09:00:55;0.10;99.90
33739;DHT22;20063;51.730;11.110;2023-03-01T09:03:24;0.20;99.90
33739;DHT22;20063;51.730;11.110;2023-03-01T09:05:51;0.20;99.90
33739;DHT22;20063;51.730;11.110;2023-03-01T09:08:18;0.30;99.90
33739;DHT22;20063;51.730;11.110;2023-03-01T09:10:43;0.30;99.90
33739;DHT22;20063;51.730;11.110;2023-03-01T09:13:09;0.40;99.90
33739;DHT22;20063;51.730;11.110;2023-03-01T09:15:37;0.50;99.90
33739;DHT22;20063;51.730;11.110;2023-03-01T09:18:03;0.50;99.90
33739;DHT22;20063;51.730;11.110;2023-03-01T09:20:30;0.60;99.90
33739;DHT22;20063;51.730;11.110;2023-03-01T09:22:56;0.60;99.90
33739;DHT22;20063;51.730;11.110;2023-03-01T09:25:22;0.70;99.90
33739;DHT22;20063;51.730;11.110;2023-03-01T09:27:51;0.80;99.90
33739;DHT22;20063;51.730;11.110;2023-03-01T09:30:17;0.80;99.90
33739;DHT22;20063;51.730;11.110;2023-03-01T09:32:42;0.80;99.90
33739;DHT22;20063;51.730;11.110;2023-03-01T09:35:10;0.90;99.90
33739;DHT22;20063;51.730;11.110;2023-03-01T09:37:37;0.90;99.90
33739;DHT22;20063;51.730;11.110;2023-03-01T09:40:04;0.90;99.90
33739;DHT22;20063;51.730;11.110;2023-03-01T09:42:33;1.00;99.90
33739;DHT22;20063;51.730;11.110;2023-03-01T09:45:37;1.00;99.90
33739;DHT22;20063;51.730;11.110;2023-03-01T09:48:06;1.10;99.90
33739;DHT22;20063;51.730;11.110;2023-03-01T09:50:38;1.20;99.90
33739;DHT22;20063;51.730;11.110;2023-03-01T09:53:15;1.20;99.90
33739;DHT22;20063;51.730;11.110;2023-03-01T09:56:00;1.30;99.90
33739;DHT22;20063;51.730;11.110;2023-03-01T09:58:56;1.40;99.90
33739;DHT22;20063;51.730;11.110;2023-03-01T10:01:47;1.50;99.90
33739;DHT22;20063;51.730;11.110;2023-03-01T10:04:47;1.50;99.90
33739;DHT22;20063;51.730;11.110;2023-03-01T10:09:51;1.50;99.90
33739;DHT22;20063;51.730;11.110;2023-03-01T10:12:24;1.50;99.90
33739;DHT22;20063;51.730;11.110;2023-03-01T10:20:22;1.70;99.90
33739;DHT22;20063;51.730;11.110;2023-03-01T10:22:49;1.70;99.90
33739;DHT22;20063;51.730;11.110;2023-03-01T10:28:20;1.80;99.90
33739;DHT22;20063;51.730;11.110;2023-03-01T10:30:47;1.80;99.90
33739;DHT22;20063;51.730;11.110;2023-03-01T10:33:23;1.90;99.90
33739;DHT22;20063;51.730;11.110;2023-03-01T10:35:50;1.90;99.90
33739;DHT22;20063;51.730;11.110;2023-03-01T10:38:17;1.90;99.90
33739;DHT22;20063;51.730;11.110;2023-03-01T10:40:55;1.90;99.90
33739;DHT22;20063;51.730;11.110;2023-03-01T10:43:40;2.00;99.90
33739;DHT22;20063;51.730;11.110;2023-03-01T10:46:24;2.00;99.90
33739;DHT22;20063;51.730;11.110;2023-03-01T10:49:19;2.00;99.90
33739;DHT22;20063;51.730;11.110;2023-03-01T10:51:50;2.10;99.90
33739;DHT22;20063;51.730;11.110;2023-03-01T10:54:29;2.20;99.90
33739;DHT22;20063;51.730;11.110;2023-03-01T10:56:58;2.20;99.90
33739;DHT22;20063;51.730;11.110;2023-03-01T11:02:04;2.30;99.90
33739;DHT22;20063;51.730;11.110;2023-03-01T11:04:30;2.30;99.90
33739;DHT22;20063;51.730;11.110;2023-03-01T11:07:00;2.40;99.90
33739;DHT22;20063;51.730;11.110;2023-03-01T11:09:26;2.40;99.90
33739;DHT22;20063;51.730;11.110;2023-03-01T11:12:00;2.40;99.90
33739;DHT22;20063;51.730;11.110;2023-03-01T11:14:36;2.40;99.90
33739;DHT22;20063;51.730;11.110;2023-03-01T11:19:37;2.40;99.90
33739;DHT22;20063;51.730;11.110;2023-03-01T11:22:12;2.40;99.90
33739;DHT22;20063;51.730;11.110;2023-03-01T11:24:54;2.40;99.90
33739;DHT22;20063;51.730;11.110;2023-03-01T11:27:26;2.50;99.90
33739;DHT22;20063;51.730;11.110;2023-03-01T11:30:20;2.60;99.90
33739;DHT22;20063;51.730;11.110;2023-03-01T11:35:25;2.60;99.90
33739;DHT22;20063;51.730;11.110;2023-03-01T11:40:51;2.60;99.90
33739;DHT22;20063;51.730;11.110;2023-03-01T11:52:33;2.70;99.90
33739;DHT22;20063;51.730;11.110;2023-03-01T12:14:23;3.00;99.90
33739;DHT22;20063;51.730;11.110;2023-03-01T12:31:11;3.30;99.90
33739;DHT22;20063;51.730;11.110;2023-03-01T12:33:57;3.40;99.90
33739;DHT22;20063;51.730;11.110;2023-03-01T12:36:38;3.40;99.90
33739;DHT22;20063;51.730;11.110;2023-03-01T12:42:25;3.70;99.90
33739;DHT22;20063;51.730;11.110;2023-03-01T12:45:02;3.70;99.90
33739;DHT22;20063;51.730;11.110;2023-03-01T12:50:19;3.70;99.90
33739;DHT22;20063;51.730;11.110;2023-03-01T12:52:49;3.70;99.90
33739;DHT22;20063;51.730;11.110;2023-03-01T12:55:36;3.90;99.90
33739;DHT22;20063;51.730;11.110;2023-03-01T12:58:20;3.90;99.90
33739;DHT22;20063;51.730;11.110;2023-03-01T13:06:41;4.20;99.90
33739;DHT22;20063;51.730;11.110;2023-03-01T13:09:23;4.20;99.90
33739;DHT22;20063;51.730;11.110;2023-03-01T13:11:51;4.30;99.90
33739;DHT22;20063;51.730;11.110;2023-03-01T13:16:50;4.40;99.90
33739;DHT22;20063;51.730;11.110;2023-03-01T13:21:46;4.40;99.90
33739;DHT22;20063;51.730;11.110;2023-03-01T13:24:40;4.40;99.90
33739;DHT22;20063;51.730;11.110;2023-03-01T13:29:47;4.50;99.90
33739;DHT22;20063;51.730;11.110;2023-03-01T13:34:53;4.50;99.90
33739;DHT22;20063;51.730;11.110;2023-03-01T13:37:30;4.50;99.90
33739;DHT22;20063;51.730;11.110;2023-03-01T13:40:02;4.40;99.90
33739;DHT22;20063;51.730;11.110;2023-03-01T13:45:03;4.40;99.90
33739;DHT22;20063;51.730;11.110;2023-03-01T13:47:30;4.50;99.90
33739;DHT22;20063;51.730;11.110;2023-03-01T13:50:00;4.50;99.90
33739;DHT22;20063;51.730;11.110;2023-03-01T13:52:39;4.50;99.90
33739;DHT22;20063;51.730;11.110;2023-03-01T13:57:49;4.60;99.90
33739;DHT22;20063;51.730;11.110;2023-03-01T14:05:40;4.50;99.90
33739;DHT22;20063;51.730;11.110;2023-03-01T14:08:20;4.40;99.90
33739;DHT22;20063;51.730;11.110;2023-03-01T14:19:19;4.30;99.90
33739;DHT22;20063;51.730;11.110;2023-03-01T14:21:59;4.30;99.90
33739;DHT22;20063;51.730;11.110;2023-03-01T14:24:27;4.50;99.90
33739;DHT22;20063;51.730;11.110;2023-03-01T14:26:53;4.70;99.90
33739;DHT22;20063;51.730;11.110;2023-03-01T14:29:34;5.00;99.90
33739;DHT22;20063;51.730;11.110;2023-03-01T14:32:23;5.40;99.90
33739;DHT22;20063;51.730;11.110;2023-03-01T14:34:51;5.60;99.90
33739;DHT22;20063;51.730;11.110;2023-03-01T14:37:26;5.80;99.90
33739;DHT22;20063;51.730;11.110;2023-03-01T14:39:53;5.70;99.90
33739;DHT22;20063;51.730;11.110;2023-03-01T14:42:21;5.60;99.90
33739;DHT22;20063;51.730;11.110;2023-03-01T14:44:49;5.50;99.90
33739;DHT22;20063;51.730;11.110;2023-03-01T14:49:53;5.30;99.90
33739;DHT22;20063;51.730;11.110;2023-03-01T14:52:23;5.20;99.90
33739;DHT22;20063;51.730;11.110;2023-03-01T14:54:53;5.20;99.90
33739;DHT22;20063;51.730;11.110;2023-03-01T14:57:22;5.10;99.90
33739;DHT22;20063;51.730;11.110;2023-03-01T14:59:53;5.00;99.90
33739;DHT22;20063;51.730;11.110;2023-03-01T15:02:22;4.90;99.90
33739;DHT22;20063;51.730;11.110;2023-03-01T15:04:57;5.00;99.90
33739;DHT22;20063;51.730;11.110;2023-03-01T15:07:32;5.00;99.90
33739;DHT22;20063;51.730;11.110;2023-03-01T15:10:00;5.10;99.90
33739;DHT22;20063;51.730;11.110;2023-03-01T15:14:53;5.50;99.90
33739;DHT22;20063;51.730;11.110;2023-03-01T15:17:36;5.80;99.90
33739;DHT22;20063;51.730;11.110;2023-03-01T15:20:06;6.20;99.90
33739;DHT22;20063;51.730;11.110;2023-03-01T15:22:33;6.50;99.90
33739;DHT22;20063;51.730;11.110;2023-03-01T15:25:03;6.80;99.90
33739;DHT22;20063;51.730;11.110;2023-03-01T15:27:28;7.00;99.90
33739;DHT22;20063;51.730;11.110;2023-03-01T15:30:02;7.10;99.90
33739;DHT22;20063;51.730;11.110;2023-03-01T15:34:59;6.80;99.90
33739;DHT22;20063;51.730;11.110;2023-03-01T15:37:45;6.70;99.90
33739;DHT22;20063;51.730;11.110;2023-03-01T15:40:25;6.70;99.90
33739;DHT22;20063;51.730;11.110;2023-03-01T15:43:01;6.60;99.90
33739;DHT22;20063;51.730;11.110;2023-03-01T15:45:29;6.60;99.90
33739;DHT22;20063;51.730;11.110;2023-03-01T15:47:57;6.50;99.90
33739;DHT22;20063;51.730;11.110;2023-03-01T15:50:35;6.50;99.90
33739;DHT22;20063;51.730;11.110;2023-03-01T15:53:05;6.30;99.90
33739;DHT22;20063;51.730;11.110;2023-03-01T15:55:32;6.10;99.90
33739;DHT22;20063;51.730;11.110;2023-03-01T15:58:00;5.90;99.90
33739;DHT22;20063;51.730;11.110;2023-03-01T16:00:28;5.70;99.90
33739;DHT22;20063;51.730;11.110;2023-03-01T16:02:54;5.50;99.90
33739;DHT22;20063;51.730;11.110;2023-03-01T16:05:24;5.30;99.90
33739;DHT22;20063;51.730;11.110;2023-03-01T16:07:51;5.20;99.90
33739;DHT22;20063;51.730;11.110;2023-03-01T16:10:17;5.00;99.90
33739;DHT22;20063;51.730;11.110;2023-03-01T16:12:43;4.90;99.90
33739;DHT22;20063;51.730;11.110;2023-03-01T16:15:16;4.70;99.90
33739;DHT22;20063;51.730;11.110;2023-03-01T16:17:42;4.60;99.90
33739;DHT22;20063;51.730;11.110;2023-03-01T16:20:08;4.50;99.90
33739;DHT22;20063;51.730;11.110;2023-03-01T16:22:34;4.30;99.90
33739;DHT22;20063;51.730;11.110;2023-03-01T16:24:59;4.20;99.90
33739;DHT22;20063;51.730;11.110;2023-03-01T16:27:25;4.10;99.90
33739;DHT22;20063;51.730;11.110;2023-03-01T16:29:51;3.90;99.90
33739;DHT22;20063;51.730;11.110;2023-03-01T16:32:16;3.80;99.90
33739;DHT22;20063;51.730;11.110;2023-03-01T16:34:42;3.60;99.90
33739;DHT22;20063;51.730;11.110;2023-03-01T16:37:08;3.50;99.90
33739;DHT22;20063;51.730;11.110;2023-03-01T16:39:33;3.30;99.90
33739;DHT22;20063;51.730;11.110;2023-03-01T16:42:00;3.20;99.90
33739;DHT22;20063;51.730;11.110;2023-03-01T16:44:26;3.10;99.90
33739;DHT22;20063;51.730;11.110;2023-03-01T16:46:51;2.90;99.90
33739;DHT22;20063;51.730;11.110;2023-03-01T16:49:17;2.80;99.90
33739;DHT22;20063;51.730;11.110;2023-03-01T16:51:43;2.60;99.90
33739;DHT22;20063;51.730;11.110;2023-03-01T16:54:09;2.50;99.90
33739;DHT22;20063;51.730;11.110;2023-03-01T16:56:36;2.30;99.90
33739;DHT22;20063;51.730;11.110;2023-03-01T16:59:03;2.20;99.90
33739;DHT22;20063;51.730;11.110;2023-03-01T17:01:29;2.10;99.90
33739;DHT22;20063;51.730;11.110;2023-03-01T17:04:03;2.00;99.90
33739;DHT22;20063;51.730;11.110;2023-03-01T17:06:28;1.90;99.90
33739;DHT22;20063;51.730;11.110;2023-03-01T17:08:54;1.80;99.90
33739;DHT22;20063;51.730;11.110;2023-03-01T17:11:20;1.70;99.90
33739;DHT22;20063;51.730;11.110;2023-03-01T17:13:46;1.60;99.90
33739;DHT22;20063;51.730;11.110;2023-03-01T17:16:14;1.50;99.90
33739;DHT22;20063;51.730;11.110;2023-03-01T17:18:41;1.50;99.90
33739;DHT22;20063;51.730;11.110;2023-03-01T17:21:08;1.40;99.90
33739;DHT22;20063;51.730;11.110;2023-03-01T17:23:36;1.40;99.90
33739;DHT22;20063;51.730;11.110;2023-03-01T17:26:02;1.40;99.90
33739;DHT22;20063;51.730;11.110;2023-03-01T17:28:30;1.30;99.90
33739;DHT22;20063;51.730;11.110;2023-03-01T17:31:00;1.20;99.90
33739;DHT22;20063;51.730;11.110;2023-03-01T17:33:27;1.20;99.90
33739;DHT22;20063;51.730;11.110;2023-03-01T17:35:55;1.20;99.90
33739;DHT22;20063;51.730;11.110;2023-03-01T17:38:21;1.10;99.90
33739;DHT22;20063;51.730;11.110;2023-03-01T17:40:46;1.10;99.90
33739;DHT22;20063;51.730;11.110;2023-03-01T17:43:13;1.00;99.90
33739;DHT22;20063;51.730;11.110;2023-03-01T17:45:39;1.00;99.90